sim
Sign-in with your pilot id or email,
or register
Callsign
Passwort

Schedule Details

Flight Number: EWG1700 (3)
Departure: Munich Airport (EDDM) at 12:45
Arrival: Thessaloniki International Airport (LGTS) at 14:45
Route: Eurowings Passenger Schedule. Enter filed route here before submitting Pirep.

Weather Information
Getting current METAR information for EDDM 172220Z 24002KT CAVOK 17/15 Q1015 NOSIG
Getting current METAR information for LGTS 172220Z VRB03KT 9999 FEW025 21/16 Q1015 NOSIG

Schedule Frequency

Route Map